createdAt,value
2023-05-18T00:00:56.476Z,14.48
2023-05-18T00:01:59.868Z,14.45
2023-05-18T00:03:02.278Z,14.47
2023-05-18T00:04:04.764Z,14.44
2023-05-18T00:05:07.777Z,14.49
2023-05-18T00:06:10.569Z,14.45
2023-05-18T00:07:12.791Z,14.47
2023-05-18T00:08:15.139Z,14.39
2023-05-18T00:09:17.899Z,14.42
2023-05-18T00:10:20.108Z,14.40
2023-05-18T00:11:22.530Z,14.39
2023-05-18T00:12:25.143Z,14.39
2023-05-18T00:13:27.438Z,14.34
2023-05-18T00:14:29.848Z,14.34
2023-05-18T00:15:31.998Z,14.37
2023-05-18T00:16:34.647Z,14.36
2023-05-18T00:17:37.118Z,14.35
2023-05-18T00:18:39.642Z,14.33
2023-05-18T00:19:41.926Z,14.32
2023-05-18T00:20:44.434Z,14.29
2023-05-18T00:21:47.936Z,14.34
2023-05-18T00:22:50.253Z,14.38
2023-05-18T00:23:52.956Z,14.37
2023-05-18T00:24:55.163Z,14.35
2023-05-18T00:25:58.253Z,14.37
2023-05-18T00:27:00.878Z,14.37
2023-05-18T00:28:03.317Z,14.35
2023-05-18T00:29:06.471Z,14.35
2023-05-18T00:30:09.932Z,14.36
2023-05-18T00:31:12.175Z,14.31
2023-05-18T00:32:16.383Z,14.27
2023-05-18T00:33:18.932Z,14.30
2023-05-18T00:34:21.228Z,14.28
2023-05-18T00:35:24.077Z,14.28
2023-05-18T00:36:26.549Z,14.30
2023-05-18T00:37:28.758Z,14.27
2023-05-18T00:38:31.692Z,14.30
2023-05-18T00:39:33.783Z,14.25
2023-05-18T00:40:39.320Z,14.27
2023-05-18T00:41:41.564Z,14.27
2023-05-18T00:42:43.765Z,14.26
2023-05-18T00:43:46.233Z,14.23
2023-05-18T00:44:48.481Z,14.16
2023-05-18T00:45:51.683Z,14.16
2023-05-18T00:46:53.987Z,14.13
2023-05-18T00:47:56.799Z,14.11
2023-05-18T00:48:59.219Z,14.06
2023-05-18T00:50:01.628Z,14.06
2023-05-18T00:51:05.338Z,13.99
2023-05-18T00:52:07.659Z,13.92
2023-05-18T00:53:09.825Z,13.96
2023-05-18T00:54:11.979Z,13.97
2023-05-18T00:55:14.422Z,13.99
2023-05-18T00:56:17.294Z,13.96
2023-05-18T00:57:19.591Z,13.94
2023-05-18T00:58:22.401Z,13.94
2023-05-18T00:59:25.254Z,13.95
2023-05-18T01:00:28.491Z,13.92
2023-05-18T01:01:32.835Z,13.90
2023-05-18T01:02:35.155Z,13.95
2023-05-18T01:03:38.368Z,13.95
2023-05-18T01:04:41.242Z,13.99
2023-05-18T01:05:44.715Z,13.94
2023-05-18T01:06:47.630Z,13.99
2023-05-18T01:07:49.918Z,13.96
2023-05-18T01:08:54.372Z,13.92
2023-05-18T01:09:56.920Z,13.87
2023-05-18T01:11:08.967Z,13.87
2023-05-18T01:15:07.415Z,13.99
2023-05-18T01:16:13.998Z,13.82
2023-05-18T01:20:17.046Z,13.81
2023-05-18T01:21:44.036Z,13.62
2023-05-18T01:23:08.226Z,13.65
2023-05-18T01:24:30.924Z,13.66
2023-05-18T01:25:48.712Z,13.72
2023-05-18T01:26:52.485Z,13.73
2023-05-18T01:27:56.787Z,13.75
2023-05-18T01:29:01.653Z,13.66
2023-05-18T01:30:05.901Z,13.65
2023-05-18T01:31:09.180Z,13.59
2023-05-18T01:32:19.200Z,13.60
2023-05-18T01:33:21.556Z,13.61
2023-05-18T01:34:24.042Z,13.59
2023-05-18T01:35:26.953Z,13.60
2023-05-18T01:36:29.224Z,13.56
2023-05-18T01:37:31.532Z,13.56
2023-05-18T01:38:34.678Z,13.57
2023-05-18T01:39:37.647Z,13.52
2023-05-18T01:41:43.295Z,13.62
2023-05-18T01:42:49.333Z,13.52
2023-05-18T01:44:01.228Z,13.51
2023-05-18T01:45:10.110Z,13.47
2023-05-18T01:46:22.583Z,13.50
2023-05-18T01:47:28.226Z,13.45
2023-05-18T01:48:34.205Z,13.43
2023-05-18T01:49:58.378Z,13.41
2023-05-18T01:51:01.465Z,13.37
2023-05-18T01:53:25.503Z,13.43
2023-05-18T01:54:30.143Z,13.24
2023-05-18T01:55:34.982Z,13.24
2023-05-18T01:56:39.492Z,13.21
2023-05-18T01:57:44.785Z,13.18
2023-05-18T01:58:50.115Z,13.16
2023-05-18T01:59:54.812Z,13.18
2023-05-18T02:00:57.495Z,13.15
2023-05-18T02:02:01.230Z,13.12
2023-05-18T02:03:04.100Z,13.17
2023-05-18T02:04:09.802Z,13.14
2023-05-18T02:05:12.775Z,13.13
2023-05-18T02:06:15.875Z,13.14
2023-05-18T02:07:18.249Z,13.11
2023-05-18T02:08:20.482Z,13.11
2023-05-18T02:09:23.248Z,13.09
2023-05-18T02:10:27.370Z,13.02
2023-05-18T02:11:30.045Z,13.08
2023-05-18T02:12:33.047Z,13.03
2023-05-18T02:13:36.339Z,13.05
2023-05-18T02:14:38.681Z,13.08
2023-05-18T02:15:41.423Z,13.06
2023-05-18T02:16:44.049Z,13.09
2023-05-18T02:17:46.567Z,13.08
2023-05-18T02:18:49.022Z,13.09
2023-05-18T02:19:51.597Z,13.03
2023-05-18T02:21:00.285Z,13.03
2023-05-18T02:22:02.745Z,13.02
2023-05-18T02:23:05.008Z,13.01
2023-05-18T02:24:08.229Z,13.00
2023-05-18T02:25:10.605Z,12.96
2023-05-18T02:26:13.209Z,12.91
2023-05-18T02:27:16.312Z,12.93
2023-05-18T02:28:18.824Z,12.86
2023-05-18T02:29:21.125Z,12.87
2023-05-18T02:30:24.195Z,12.84
2023-05-18T02:31:27.258Z,12.89
2023-05-18T02:32:29.618Z,12.86
2023-05-18T02:33:32.194Z,12.82
2023-05-18T02:34:34.503Z,12.85
2023-05-18T02:35:36.887Z,12.81
2023-05-18T02:36:39.240Z,12.81
2023-05-18T02:37:41.992Z,12.84
2023-05-18T02:38:44.928Z,12.85
2023-05-18T02:39:47.200Z,12.89
2023-05-18T02:40:49.757Z,12.88
2023-05-18T02:41:52.149Z,12.88
2023-05-18T02:42:54.666Z,12.87
2023-05-18T02:43:57.072Z,12.83
2023-05-18T02:44:59.528Z,12.86
2023-05-18T02:46:03.034Z,12.89
2023-05-18T02:47:05.754Z,12.90
2023-05-18T02:48:08.002Z,12.90
2023-05-18T02:49:10.270Z,12.88
2023-05-18T02:50:12.955Z,12.89
2023-05-18T02:51:15.566Z,12.92
2023-05-18T02:52:19.129Z,12.93
2023-05-18T02:53:21.595Z,12.93
2023-05-18T02:54:24.209Z,12.92
2023-05-18T02:55:26.577Z,12.97
2023-05-18T02:56:34.054Z,12.98
2023-05-18T02:57:38.600Z,12.99
2023-05-18T02:58:43.276Z,12.99
2023-05-18T02:59:47.415Z,12.96
2023-05-18T03:00:50.189Z,12.95
2023-05-18T03:01:53.620Z,12.95
2023-05-18T03:02:56.243Z,12.99
2023-05-18T03:03:58.583Z,12.98
2023-05-18T03:05:00.992Z,13.01
2023-05-18T03:06:04.471Z,12.99
2023-05-18T03:07:06.942Z,13.04
2023-05-18T03:08:09.796Z,13.05
2023-05-18T03:09:12.074Z,13.06
2023-05-18T03:10:17.314Z,13.07
2023-05-18T03:11:20.693Z,13.11
2023-05-18T03:12:23.680Z,13.11
2023-05-18T03:13:26.253Z,13.12
2023-05-18T03:14:28.527Z,13.14
2023-05-18T03:15:32.072Z,13.16
2023-05-18T03:16:35.997Z,13.17
2023-05-18T03:17:38.524Z,13.21
2023-05-18T03:18:41.427Z,13.24
2023-05-18T03:19:44.194Z,13.25
2023-05-18T03:20:47.893Z,13.28
2023-05-18T03:21:50.119Z,13.30
2023-05-18T03:22:52.531Z,13.32
2023-05-18T03:23:55.264Z,13.35
2023-05-18T03:24:57.560Z,13.39
2023-05-18T03:26:00.645Z,13.41
2023-05-18T03:27:03.224Z,13.44
2023-05-18T03:28:05.879Z,13.48
2023-05-18T03:29:08.607Z,13.51
2023-05-18T03:30:11.765Z,13.54
2023-05-18T03:31:14.145Z,13.57
2023-05-18T03:32:16.528Z,13.57
2023-05-18T03:33:18.920Z,13.61
2023-05-18T03:34:21.321Z,13.63
2023-05-18T03:35:23.660Z,13.65
2023-05-18T03:36:26.567Z,13.68
2023-05-18T03:37:28.702Z,13.70
2023-05-18T03:38:31.239Z,13.71
2023-05-18T03:39:35.381Z,13.74
2023-05-18T03:40:37.986Z,13.77
2023-05-18T03:41:40.984Z,13.80
2023-05-18T03:42:43.329Z,13.84
2023-05-18T03:43:45.648Z,13.85
2023-05-18T03:44:47.886Z,13.90
2023-05-18T03:45:50.529Z,13.92
2023-05-18T03:46:53.188Z,13.95
2023-05-18T03:47:55.982Z,13.97
2023-05-18T03:49:00.980Z,13.98
2023-05-18T03:50:06.854Z,14.01
2023-05-18T03:51:09.474Z,14.04
2023-05-18T03:52:11.842Z,14.06
2023-05-18T03:53:13.953Z,14.10
2023-05-18T03:54:16.216Z,14.11
2023-05-18T03:55:18.451Z,14.15
2023-05-18T03:56:20.981Z,14.16
2023-05-18T03:57:23.273Z,14.19
2023-05-18T03:58:25.674Z,14.22
2023-05-18T03:59:27.990Z,14.25
2023-05-18T04:00:30.402Z,14.28
2023-05-18T04:01:32.530Z,14.29
2023-05-18T04:02:34.912Z,14.32
2023-05-18T04:03:38.991Z,14.35
2023-05-18T04:04:41.492Z,14.37
2023-05-18T04:05:44.840Z,14.40
2023-05-18T04:06:47.226Z,14.41
2023-05-18T04:07:50.292Z,14.44
2023-05-18T04:08:53.168Z,14.45
2023-05-18T04:09:56.103Z,14.46
2023-05-18T04:10:58.645Z,14.49
2023-05-18T04:12:01.431Z,14.52
2023-05-18T04:13:03.634Z,14.55
2023-05-18T04:14:06.709Z,14.58
2023-05-18T04:15:10.184Z,14.60
2023-05-18T04:16:13.591Z,14.62
2023-05-18T04:17:17.186Z,14.66
2023-05-18T04:18:19.985Z,14.70
2023-05-18T04:19:22.396Z,14.73
2023-05-18T04:20:24.777Z,14.76
2023-05-18T04:21:27.134Z,14.79
2023-05-18T04:22:29.419Z,14.81
2023-05-18T04:23:32.400Z,14.85
2023-05-18T04:24:34.693Z,14.87
2023-05-18T04:25:38.012Z,14.92
2023-05-18T04:26:41.206Z,14.94
2023-05-18T04:27:43.898Z,14.98
2023-05-18T04:28:46.477Z,15.00
2023-05-18T04:29:48.888Z,15.03
2023-05-18T04:30:51.767Z,15.07
2023-05-18T04:31:57.818Z,15.09
2023-05-18T04:33:00.265Z,15.12
2023-05-18T04:34:03.192Z,15.13
2023-05-18T04:35:09.800Z,15.16
2023-05-18T04:36:12.713Z,15.18
2023-05-18T04:37:14.955Z,15.21
2023-05-18T04:38:17.089Z,15.24
2023-05-18T04:39:19.822Z,15.26
2023-05-18T04:40:22.165Z,15.28
2023-05-18T04:41:25.702Z,15.33
2023-05-18T04:42:28.445Z,15.35
2023-05-18T04:43:31.578Z,15.37
2023-05-18T04:44:35.048Z,15.42
2023-05-18T04:45:37.409Z,15.45
2023-05-18T04:46:40.882Z,15.50
2023-05-18T04:48:54.795Z,15.65
2023-05-18T04:49:57.162Z,15.57
2023-05-18T04:50:59.447Z,15.60
2023-05-18T04:52:02.197Z,15.65
2023-05-18T04:53:05.388Z,15.67
2023-05-18T04:54:07.953Z,15.71
2023-05-18T04:55:10.378Z,15.75
2023-05-18T04:56:13.587Z,15.79
2023-05-18T04:57:16.006Z,15.82
2023-05-18T04:58:18.651Z,15.84
2023-05-18T04:59:21.104Z,15.90
2023-05-18T05:00:28.331Z,15.94
2023-05-18T05:01:30.714Z,15.98
2023-05-18T05:02:33.024Z,16.01
2023-05-18T05:03:35.202Z,16.05
2023-05-18T05:04:37.997Z,16.09
2023-05-18T05:05:40.525Z,16.14
2023-05-18T05:06:43.477Z,16.19
2023-05-18T05:07:45.912Z,16.24
2023-05-18T05:08:48.470Z,16.30
2023-05-18T05:09:50.915Z,16.33
2023-05-18T05:10:55.554Z,16.39
2023-05-18T05:11:57.893Z,16.45
2023-05-18T05:13:00.294Z,16.51
2023-05-18T05:14:02.647Z,16.57
2023-05-18T05:15:05.464Z,16.60
2023-05-18T05:16:08.459Z,16.68
2023-05-18T05:17:10.489Z,16.72
2023-05-18T05:18:13.149Z,16.76
2023-05-18T05:19:15.346Z,16.82
2023-05-18T05:20:18.268Z,16.87
2023-05-18T05:21:20.521Z,16.90
2023-05-18T05:22:23.608Z,16.94
2023-05-18T05:23:26.504Z,16.97
2023-05-18T05:24:29.211Z,17.02
2023-05-18T05:25:32.838Z,17.05
2023-05-18T05:26:36.925Z,17.07
2023-05-18T05:27:39.834Z,17.12
2023-05-18T05:28:42.346Z,17.15
2023-05-18T05:29:48.487Z,17.20
2023-05-18T05:30:50.780Z,17.27
2023-05-18T05:31:53.378Z,17.33
2023-05-18T05:32:55.775Z,17.40
2023-05-18T05:33:57.953Z,17.45
2023-05-18T05:35:00.838Z,17.48
2023-05-18T05:36:03.553Z,17.54
2023-05-18T05:37:05.917Z,17.58
2023-05-18T05:38:08.211Z,17.62
2023-05-18T05:39:11.091Z,17.65
2023-05-18T05:40:13.958Z,17.70
2023-05-18T05:41:20.690Z,17.74
2023-05-18T05:42:22.779Z,17.79
2023-05-18T05:43:25.125Z,17.84
2023-05-18T05:44:27.868Z,17.90
2023-05-18T05:45:29.974Z,17.94
2023-05-18T05:46:34.502Z,18.01
2023-05-18T05:47:37.481Z,18.03
2023-05-18T05:48:40.081Z,18.09
2023-05-18T05:49:42.504Z,18.11
2023-05-18T05:50:45.147Z,18.13
2023-05-18T05:51:48.838Z,18.19
2023-05-18T05:52:53.133Z,18.25
2023-05-18T05:53:56.303Z,18.28
2023-05-18T05:54:58.729Z,18.33
2023-05-18T05:56:01.364Z,18.36
2023-05-18T05:57:05.898Z,18.40
2023-05-18T05:58:09.018Z,18.44
2023-05-18T05:59:11.342Z,18.50
2023-05-18T06:00:16.452Z,18.54
2023-05-18T06:01:23.548Z,18.59
2023-05-18T06:02:26.697Z,18.63
2023-05-18T06:03:30.128Z,18.67
2023-05-18T06:04:34.424Z,18.70
2023-05-18T06:05:37.354Z,18.74
2023-05-18T06:06:41.919Z,18.79
2023-05-18T06:07:44.167Z,18.87
2023-05-18T06:08:46.470Z,18.91
2023-05-18T06:09:48.750Z,18.96
2023-05-18T06:10:51.787Z,19.02
2023-05-18T06:11:54.468Z,19.12
2023-05-18T06:12:57.226Z,19.18
2023-05-18T06:14:01.821Z,19.24
2023-05-18T06:15:05.490Z,19.29
2023-05-18T06:16:08.488Z,19.33
2023-05-18T06:17:10.759Z,19.37
2023-05-18T06:18:13.835Z,19.38
2023-05-18T06:19:16.782Z,19.42
2023-05-18T06:20:19.227Z,19.48
2023-05-18T06:21:22.079Z,19.51
2023-05-18T06:22:24.261Z,19.57
2023-05-18T06:23:28.831Z,19.60
2023-05-18T06:24:37.313Z,19.64
2023-05-18T06:25:58.049Z,19.68
2023-05-18T06:28:40.238Z,19.90
2023-05-18T06:30:02.589Z,19.85
2023-05-18T06:31:13.101Z,19.94
2023-05-18T06:32:19.925Z,20.01
2023-05-18T06:33:26.185Z,20.09
2023-05-18T06:34:29.313Z,20.16
2023-05-18T06:35:31.927Z,20.19
2023-05-18T06:36:34.571Z,20.23
2023-05-18T06:37:36.812Z,20.26
2023-05-18T06:38:39.026Z,20.29
2023-05-18T06:39:41.391Z,20.33
2023-05-18T06:40:43.843Z,20.39
2023-05-18T06:41:46.519Z,20.42
2023-05-18T06:42:50.785Z,20.48
2023-05-18T06:43:57.615Z,20.52
2023-05-18T06:45:23.810Z,20.56
2023-05-18T06:46:28.701Z,20.60
2023-05-18T06:47:32.944Z,20.66
2023-05-18T06:48:36.139Z,20.67
2023-05-18T06:49:38.683Z,20.71
2023-05-18T06:50:41.828Z,20.75
2023-05-18T06:51:44.900Z,20.79
2023-05-18T06:52:47.975Z,20.83
2023-05-18T06:53:50.432Z,20.85
2023-05-18T06:54:52.841Z,20.89
2023-05-18T06:55:55.669Z,20.93
2023-05-18T06:56:58.121Z,20.97
2023-05-18T06:58:00.884Z,21.02
2023-05-18T06:59:03.639Z,21.05
2023-05-18T07:00:07.347Z,21.10
2023-05-18T07:01:11.470Z,21.11
2023-05-18T07:02:13.898Z,21.14
2023-05-18T07:03:16.945Z,21.17
2023-05-18T07:04:19.339Z,21.21
2023-05-18T07:05:21.525Z,21.25
2023-05-18T07:06:24.327Z,21.30
2023-05-18T07:07:26.573Z,21.31
2023-05-18T07:08:28.679Z,21.36
2023-05-18T07:09:31.104Z,21.40
2023-05-18T07:10:33.623Z,21.44
2023-05-18T07:11:35.897Z,21.48
2023-05-18T07:12:38.213Z,21.53
2023-05-18T07:13:40.514Z,21.57
2023-05-18T07:14:42.826Z,21.61
2023-05-18T07:15:45.953Z,21.65
2023-05-18T07:16:48.271Z,21.69
2023-05-18T07:17:51.493Z,21.72
2023-05-18T07:18:53.833Z,21.75
2023-05-18T07:19:56.202Z,21.78
2023-05-18T07:20:59.102Z,21.81
2023-05-18T07:22:03.529Z,21.86
2023-05-18T07:23:05.662Z,21.90
2023-05-18T07:24:08.392Z,21.91
2023-05-18T07:25:10.683Z,21.92
2023-05-18T07:26:13.205Z,21.96
2023-05-18T07:27:15.478Z,21.99
2023-05-18T07:28:17.831Z,22.03
2023-05-18T07:29:20.125Z,22.06
2023-05-18T07:30:22.682Z,22.09
2023-05-18T07:31:27.263Z,22.12
2023-05-18T07:32:30.094Z,22.17
2023-05-18T07:33:32.790Z,22.21
2023-05-18T07:34:34.947Z,22.25
2023-05-18T07:35:37.371Z,22.30
2023-05-18T07:36:39.624Z,22.34
2023-05-18T07:37:42.189Z,22.38
2023-05-18T07:38:44.590Z,22.42
2023-05-18T07:39:47.795Z,22.42
2023-05-18T07:40:50.127Z,22.43
2023-05-18T07:41:52.858Z,22.44
2023-05-18T07:42:55.665Z,22.46
2023-05-18T07:43:58.041Z,22.46
2023-05-18T07:45:00.367Z,22.49
2023-05-18T07:46:04.951Z,22.50
2023-05-18T07:47:07.431Z,22.52
2023-05-18T07:49:21.248Z,22.67
2023-05-18T07:50:23.722Z,22.61
2023-05-18T07:51:25.763Z,22.62
2023-05-18T07:52:28.410Z,22.67
2023-05-18T07:53:30.648Z,22.72
2023-05-18T07:54:32.921Z,22.75
2023-05-18T07:55:35.048Z,22.78
2023-05-18T07:56:38.147Z,22.81
2023-05-18T07:57:40.465Z,22.83
2023-05-18T07:58:42.563Z,22.83
2023-05-18T07:59:45.767Z,22.83
2023-05-18T08:00:48.255Z,22.86
2023-05-18T08:01:50.536Z,22.88
2023-05-18T08:02:55.065Z,22.89
2023-05-18T08:03:57.708Z,22.91
2023-05-18T08:04:59.906Z,22.94
2023-05-18T08:06:02.291Z,22.98
2023-05-18T08:07:04.676Z,23.01
2023-05-18T08:08:07.203Z,23.05
2023-05-18T08:09:09.520Z,23.09
2023-05-18T08:10:12.582Z,23.12
2023-05-18T08:11:15.372Z,23.15
2023-05-18T08:12:17.694Z,23.20
2023-05-18T08:13:20.642Z,23.22
2023-05-18T08:14:22.973Z,23.24
2023-05-18T08:15:25.771Z,23.27
2023-05-18T08:16:28.253Z,23.31
2023-05-18T08:17:30.476Z,23.34
2023-05-18T08:18:32.762Z,23.37
2023-05-18T08:19:34.906Z,23.41
2023-05-18T08:20:37.250Z,23.42
2023-05-18T08:21:39.644Z,23.46
2023-05-18T08:22:41.818Z,23.48
2023-05-18T08:23:44.682Z,23.52
2023-05-18T08:24:47.088Z,23.54
2023-05-18T08:25:49.204Z,23.57
2023-05-18T08:26:52.048Z,23.62
2023-05-18T08:27:54.393Z,23.65
2023-05-18T08:28:56.703Z,23.67
2023-05-18T08:29:59.093Z,23.71
2023-05-18T08:31:01.475Z,23.72
2023-05-18T08:33:15.503Z,23.84
2023-05-18T08:34:18.034Z,23.76
2023-05-18T08:35:20.096Z,23.77
2023-05-18T08:36:22.404Z,23.80
2023-05-18T08:37:24.637Z,23.83
2023-05-18T08:38:26.835Z,23.86
2023-05-18T08:39:29.027Z,23.90
2023-05-18T08:40:34.956Z,23.93
2023-05-18T08:43:14.055Z,24.09
2023-05-18T08:44:22.311Z,24.01
2023-05-18T08:45:43.126Z,24.04
2023-05-18T08:46:49.938Z,24.07
2023-05-18T08:47:56.050Z,24.12
2023-05-18T08:49:00.354Z,24.14
2023-05-18T08:50:04.597Z,24.17
2023-05-18T08:51:10.200Z,24.19
2023-05-18T08:52:16.581Z,24.20
2023-05-18T08:53:21.170Z,24.21
2023-05-18T08:55:21.299Z,24.31
2023-05-18T08:56:25.644Z,24.23
2023-05-18T08:57:29.673Z,24.23
2023-05-18T08:58:39.111Z,24.25
2023-05-18T08:59:43.415Z,24.27
2023-05-18T09:00:46.269Z,24.30
2023-05-18T09:01:50.051Z,24.34
2023-05-18T09:02:53.821Z,24.36
2023-05-18T09:03:56.966Z,24.38
2023-05-18T09:04:59.326Z,24.36
2023-05-18T09:06:04.084Z,24.36
2023-05-18T09:07:07.313Z,24.38
2023-05-18T09:08:10.152Z,24.38
2023-05-18T09:09:14.264Z,24.42
2023-05-18T09:10:18.926Z,24.45
2023-05-18T09:11:26.461Z,24.49
2023-05-18T09:12:31.297Z,24.53
2023-05-18T09:13:33.906Z,24.55
2023-05-18T09:14:36.450Z,24.57
2023-05-18T09:15:38.817Z,24.58
2023-05-18T09:16:41.253Z,24.60
2023-05-18T09:17:43.614Z,24.59
2023-05-18T09:18:46.498Z,24.62
2023-05-18T09:19:49.504Z,24.65
2023-05-18T09:20:52.452Z,24.65
2023-05-18T09:21:54.898Z,24.70
2023-05-18T09:22:57.768Z,24.72
2023-05-18T09:24:01.751Z,24.75
2023-05-18T09:25:07.113Z,24.77
2023-05-18T09:26:10.904Z,24.79
2023-05-18T09:27:13.256Z,24.82
2023-05-18T09:28:36.632Z,24.84
2023-05-18T09:29:53.758Z,24.85
2023-05-18T09:30:57.258Z,24.86
2023-05-18T09:32:06.293Z,24.84
2023-05-18T09:34:29.678Z,24.94
2023-05-18T09:35:32.793Z,24.86
2023-05-18T09:36:35.798Z,24.86
2023-05-18T09:37:42.806Z,24.88
2023-05-18T09:38:45.568Z,24.89
2023-05-18T09:39:59.013Z,24.92
2023-05-18T09:41:01.683Z,24.94
2023-05-18T09:42:04.698Z,24.94
2023-05-18T09:43:07.135Z,24.94
2023-05-18T09:44:10.160Z,24.97
2023-05-18T09:45:18.218Z,24.97
2023-05-18T09:46:20.961Z,24.95
2023-05-18T09:47:23.403Z,24.92
2023-05-18T09:48:25.873Z,24.88
2023-05-18T09:49:31.458Z,24.83
2023-05-18T09:50:34.138Z,24.81
2023-05-18T09:51:38.195Z,24.80
2023-05-18T09:53:56.378Z,24.97
2023-05-18T09:54:59.105Z,24.90
2023-05-18T09:56:04.213Z,24.93
2023-05-18T09:57:11.291Z,24.97
2023-05-18T09:58:11.570Z,24.99
2023-05-18T09:59:15.135Z,25.00
2023-05-18T10:00:21.278Z,25.01
2023-05-18T10:01:24.955Z,25.04
2023-05-18T10:02:27.780Z,25.08
2023-05-18T10:03:35.326Z,25.11
2023-05-18T10:04:39.527Z,25.16
2023-05-18T10:05:42.297Z,25.21
2023-05-18T10:06:50.703Z,25.25
2023-05-18T10:09:03.128Z,25.40
2023-05-18T10:10:09.173Z,25.32
2023-05-18T10:11:11.679Z,25.34
2023-05-18T10:12:15.510Z,25.37
2023-05-18T10:13:18.540Z,25.39
2023-05-18T10:14:25.521Z,25.42
2023-05-18T10:15:27.754Z,25.43
2023-05-18T10:16:32.124Z,25.41
2023-05-18T10:17:36.932Z,25.41
2023-05-18T10:18:40.780Z,25.43
2023-05-18T10:19:45.542Z,25.45
2023-05-18T10:20:49.409Z,25.49
2023-05-18T10:21:52.936Z,25.51
2023-05-18T10:22:57.761Z,25.55
2023-05-18T10:24:03.868Z,25.55
2023-05-18T10:25:09.770Z,25.58
2023-05-18T10:26:15.012Z,25.57
2023-05-18T10:27:19.492Z,25.54
2023-05-18T10:28:24.836Z,25.55
2023-05-18T10:29:28.778Z,25.57
2023-05-18T10:30:32.321Z,25.59
2023-05-18T10:31:36.877Z,25.61
2023-05-18T10:32:40.145Z,25.65
2023-05-18T10:33:44.105Z,25.68
2023-05-18T10:34:47.788Z,25.73
2023-05-18T10:35:51.569Z,25.73
2023-05-18T10:36:55.481Z,25.75
2023-05-18T10:37:59.426Z,25.78
2023-05-18T10:39:02.948Z,25.80
2023-05-18T10:41:20.145Z,25.94
2023-05-18T10:42:24.998Z,25.86
2023-05-18T10:43:28.732Z,25.90
2023-05-18T10:44:31.974Z,25.92
2023-05-18T10:45:37.197Z,25.92
2023-05-18T10:46:41.454Z,25.93
2023-05-18T10:47:44.095Z,25.97
2023-05-18T10:48:49.430Z,26.00
2023-05-18T10:49:53.621Z,26.04
2023-05-18T10:50:57.205Z,26.04
2023-05-18T10:52:00.436Z,26.08
2023-05-18T10:54:11.808Z,26.20
2023-05-18T10:55:14.275Z,26.11
2023-05-18T10:56:18.911Z,26.10
2023-05-18T10:57:22.447Z,26.09
2023-05-18T10:58:27.754Z,26.09
2023-05-18T10:59:30.062Z,26.11
2023-05-18T11:00:35.537Z,26.11
2023-05-18T11:01:40.307Z,26.13
2023-05-18T11:02:43.341Z,26.13
2023-05-18T11:03:48.562Z,26.14
2023-05-18T11:04:54.167Z,26.13
2023-05-18T11:07:19.552Z,26.25
2023-05-18T11:08:26.355Z,26.17
2023-05-18T11:09:29.344Z,26.22
2023-05-18T11:10:43.017Z,26.27
2023-05-18T11:11:52.773Z,26.31
2023-05-18T11:12:54.986Z,26.34
2023-05-18T11:14:02.642Z,26.36
2023-05-18T11:15:05.892Z,26.37
2023-05-18T11:16:08.765Z,26.38
2023-05-18T11:17:22.835Z,26.40
2023-05-18T11:18:37.727Z,26.43
2023-05-18T11:19:40.502Z,26.45
2023-05-18T11:20:45.177Z,26.50
2023-05-18T11:21:50.031Z,26.52
2023-05-18T11:22:58.799Z,26.54
2023-05-18T11:24:33.197Z,26.57
2023-05-18T11:25:40.105Z,26.61
2023-05-18T11:27:58.568Z,26.75
2023-05-18T11:29:00.733Z,26.65
2023-05-18T11:30:14.881Z,26.71
2023-05-18T11:31:07.619Z,26.73
2023-05-18T11:32:30.113Z,26.79
2023-05-18T11:33:29.470Z,26.80
2023-05-18T11:34:43.348Z,26.75
2023-05-18T11:36:06.478Z,26.72
2023-05-18T11:37:08.831Z,26.69
2023-05-18T11:38:11.093Z,26.70
2023-05-18T11:39:16.852Z,26.71
2023-05-18T11:42:08.884Z,26.91
2023-05-18T11:43:25.364Z,26.83
2023-05-18T11:44:28.609Z,26.90
2023-05-18T11:45:33.032Z,26.93
2023-05-18T11:46:36.636Z,26.96
2023-05-18T11:47:40.007Z,26.99
2023-05-18T11:48:44.063Z,27.00
2023-05-18T11:49:48.512Z,27.01
2023-05-18T11:50:54.928Z,27.02
2023-05-18T11:52:10.703Z,27.03
2023-05-18T11:53:16.012Z,27.02
2023-05-18T11:54:18.619Z,27.02
2023-05-18T11:55:21.137Z,27.06
2023-05-18T11:56:25.352Z,27.09
2023-05-18T11:57:37.197Z,27.07
2023-05-18T11:58:40.130Z,27.02
2023-05-18T11:59:44.504Z,26.97
2023-05-18T12:00:48.599Z,26.93
2023-05-18T12:01:51.457Z,26.91
2023-05-18T12:02:55.862Z,26.92
2023-05-18T12:03:58.275Z,26.93
2023-05-18T12:05:02.070Z,26.94
2023-05-18T12:06:06.243Z,26.98
2023-05-18T12:07:09.225Z,27.00
2023-05-18T12:08:11.933Z,27.00
2023-05-18T12:09:14.727Z,27.03
2023-05-18T12:10:20.415Z,27.04
2023-05-18T12:11:23.582Z,27.05
2023-05-18T12:12:26.997Z,27.09
2023-05-18T12:13:30.199Z,27.12
2023-05-18T12:14:34.814Z,27.13
2023-05-18T12:15:37.969Z,27.13
2023-05-18T12:16:40.796Z,27.16
2023-05-18T12:17:48.955Z,27.21
2023-05-18T12:18:51.498Z,27.23
2023-05-18T12:19:54.268Z,27.27
2023-05-18T12:20:57.748Z,27.30
2023-05-18T12:22:00.004Z,27.35
2023-05-18T12:23:02.314Z,27.38
2023-05-18T12:24:05.840Z,27.40
2023-05-18T12:25:09.054Z,27.44
2023-05-18T12:26:12.754Z,27.44
2023-05-18T12:27:15.515Z,27.45
2023-05-18T12:28:18.275Z,27.45
2023-05-18T12:29:20.609Z,27.47
2023-05-18T12:30:25.111Z,27.50
2023-05-18T12:31:28.307Z,27.53
2023-05-18T12:32:30.501Z,27.53
2023-05-18T12:33:33.841Z,27.54
2023-05-18T12:34:37.409Z,27.51
2023-05-18T12:35:39.840Z,27.54
2023-05-18T12:36:44.570Z,27.59
2023-05-18T12:37:46.946Z,27.60
2023-05-18T12:38:53.960Z,27.65
2023-05-18T12:39:56.505Z,27.70
2023-05-18T12:40:59.303Z,27.73
2023-05-18T12:43:19.657Z,27.87
2023-05-18T12:44:21.996Z,27.76
2023-05-18T12:45:27.109Z,27.76
2023-05-18T12:46:30.076Z,27.76
2023-05-18T12:47:33.024Z,27.76
2023-05-18T12:48:37.257Z,27.80
2023-05-18T12:49:41.536Z,27.83
2023-05-18T12:50:48.118Z,27.78
2023-05-18T12:51:53.980Z,27.75
2023-05-18T12:52:56.374Z,27.75
2023-05-18T12:53:58.863Z,27.71
2023-05-18T12:55:01.279Z,27.74
2023-05-18T12:56:03.706Z,27.70
2023-05-18T12:57:06.171Z,27.72
2023-05-18T12:58:12.742Z,27.75
2023-05-18T12:59:17.508Z,27.78
2023-05-18T13:00:20.293Z,27.80
2023-05-18T13:01:22.611Z,27.85
2023-05-18T13:02:37.223Z,27.87
2023-05-18T13:03:40.625Z,27.91
2023-05-18T13:04:42.932Z,27.94
2023-05-18T13:05:48.326Z,27.97
2023-05-18T13:06:51.203Z,27.98
2023-05-18T13:07:55.945Z,27.98
2023-05-18T13:08:58.272Z,28.00
2023-05-18T13:10:02.261Z,28.00
2023-05-18T13:11:13.379Z,28.02
2023-05-18T13:12:10.777Z,28.03
2023-05-18T13:13:16.550Z,28.04
2023-05-18T13:14:22.164Z,28.03
2023-05-18T13:15:25.050Z,28.02
2023-05-18T13:16:27.604Z,28.04
2023-05-18T13:17:30.258Z,28.01
2023-05-18T13:18:32.590Z,28.02
2023-05-18T13:19:35.553Z,27.97
2023-05-18T13:22:00.831Z,28.12
2023-05-18T13:23:06.185Z,28.02
2023-05-18T13:24:08.465Z,28.02
2023-05-18T13:25:10.635Z,28.04
2023-05-18T13:26:13.602Z,28.07
2023-05-18T13:27:16.447Z,28.10
2023-05-18T13:28:20.717Z,28.14
2023-05-18T13:29:23.592Z,28.13
2023-05-18T13:30:26.560Z,28.14
2023-05-18T13:31:28.853Z,28.14
2023-05-18T13:32:31.614Z,28.10
2023-05-18T13:33:33.950Z,28.09
2023-05-18T13:34:36.706Z,28.02
2023-05-18T13:35:41.091Z,28.02
2023-05-18T13:36:43.290Z,28.02
2023-05-18T13:37:47.043Z,28.01
2023-05-18T13:38:49.419Z,28.03
2023-05-18T13:39:52.779Z,28.02
2023-05-18T13:40:55.740Z,28.01
2023-05-18T13:41:57.996Z,28.05
2023-05-18T13:43:00.237Z,28.08
2023-05-18T13:44:03.927Z,28.12
2023-05-18T13:45:07.921Z,28.15
2023-05-18T13:46:11.175Z,28.16
2023-05-18T13:47:13.501Z,28.18
2023-05-18T13:48:16.288Z,28.22
2023-05-18T13:49:18.560Z,28.22
2023-05-18T13:50:21.272Z,28.27
2023-05-18T13:51:24.036Z,28.28
2023-05-18T13:52:26.333Z,28.29
2023-05-18T13:53:28.655Z,28.29
2023-05-18T13:54:30.913Z,28.29
2023-05-18T13:55:33.647Z,28.30
2023-05-18T13:56:36.457Z,28.28
2023-05-18T13:57:38.839Z,28.26
2023-05-18T13:58:41.496Z,28.24
2023-05-18T13:59:43.782Z,28.23
2023-05-18T14:00:46.213Z,28.20
2023-05-18T14:01:48.945Z,28.20
2023-05-18T14:02:51.911Z,28.23
2023-05-18T14:03:54.760Z,28.24
2023-05-18T14:04:57.300Z,28.27
2023-05-18T14:06:00.120Z,28.31
2023-05-18T14:07:02.487Z,28.32
2023-05-18T14:08:05.113Z,28.34
2023-05-18T14:09:07.315Z,28.33
2023-05-18T14:10:11.744Z,28.36
2023-05-18T14:11:14.584Z,28.37